createdAt,value
2023-07-12T00:01:25.294Z,98882.70
2023-07-12T00:03:53.594Z,98880.80
2023-07-12T00:06:34.915Z,98881.11
2023-07-12T00:09:04.667Z,98879.01
2023-07-12T00:11:32.873Z,98877.53
2023-07-12T00:14:00.550Z,98865.90
2023-07-12T00:16:40.007Z,98858.15
2023-07-12T00:19:14.276Z,98850.27
2023-07-12T00:21:42.401Z,98846.26
2023-07-12T00:24:10.820Z,98841.27
2023-07-12T00:26:39.250Z,98836.55
2023-07-12T00:29:09.350Z,98843.11
2023-07-12T00:31:39.930Z,98843.98
2023-07-12T00:34:07.915Z,98851.56
2023-07-12T00:36:36.395Z,98853.35
2023-07-12T00:39:06.495Z,98856.44
2023-07-12T00:42:10.265Z,98853.52
2023-07-12T00:44:46.083Z,98848.22
2023-07-12T00:47:15.043Z,98841.52
2023-07-12T00:49:46.879Z,98831.29
2023-07-12T00:52:18.509Z,98822.91
2023-07-12T00:54:48.623Z,98824.43
2023-07-12T00:57:16.537Z,98819.58
2023-07-12T00:59:46.218Z,98812.39
2023-07-12T01:02:14.626Z,98812.56
2023-07-12T01:04:45.406Z,98808.52
2023-07-12T01:07:17.387Z,98804.84
2023-07-12T01:09:45.314Z,98799.75
2023-07-12T01:12:14.502Z,98791.98
2023-07-12T01:14:43.078Z,98791.77
2023-07-12T01:17:11.050Z,98793.73
2023-07-12T01:19:40.212Z,98791.99
2023-07-12T01:22:09.026Z,98791.46
2023-07-12T01:24:37.634Z,98791.69
2023-07-12T01:27:15.517Z,98794.23
2023-07-12T01:29:43.492Z,98788.91
2023-07-12T01:32:12.803Z,98788.70
2023-07-12T01:34:40.724Z,98787.48
2023-07-12T01:37:08.459Z,98784.23
2023-07-12T01:39:36.497Z,98789.91
2023-07-12T01:42:05.918Z,98789.21
2023-07-12T01:44:33.776Z,98790.80
2023-07-12T01:47:01.465Z,98794.69
2023-07-12T01:49:29.337Z,98790.42
2023-07-12T01:51:57.152Z,98789.92
2023-07-12T01:54:25.076Z,98785.55
2023-07-12T01:56:53.022Z,98783.02
2023-07-12T01:59:20.921Z,98780.80
2023-07-12T02:01:49.326Z,98773.51
2023-07-12T02:04:18.103Z,98768.80
2023-07-12T02:06:45.856Z,98769.61
2023-07-12T02:09:13.994Z,98767.88
2023-07-12T02:11:42.605Z,98762.48
2023-07-12T02:14:10.612Z,98761.29
2023-07-12T02:16:38.325Z,98765.50
2023-07-12T02:19:06.322Z,98757.88
2023-07-12T02:21:33.961Z,98756.05
2023-07-12T02:24:02.236Z,98753.19
2023-07-12T02:26:30.019Z,98752.21
2023-07-12T02:28:58.023Z,98752.91
2023-07-12T02:31:26.417Z,98753.45
2023-07-12T02:33:57.285Z,98750.64
2023-07-12T02:36:25.274Z,98751.66
2023-07-12T02:38:53.290Z,98748.73
2023-07-12T02:41:21.063Z,98743.72
2023-07-12T02:43:49.000Z,98740.63
2023-07-12T02:46:17.193Z,98737.52
2023-07-12T02:48:45.461Z,98733.20
2023-07-12T02:51:13.598Z,98730.28
2023-07-12T02:53:41.839Z,98726.61
2023-07-12T02:56:10.065Z,98723.20
2023-07-12T02:58:38.579Z,98722.29
2023-07-12T03:01:06.984Z,98722.50
2023-07-12T03:03:34.995Z,98720.23
2023-07-12T03:06:07.412Z,98722.06
2023-07-12T03:08:35.711Z,98723.74
2023-07-12T03:11:05.562Z,98724.00
2023-07-12T03:13:33.520Z,98723.83
2023-07-12T03:16:05.414Z,98720.21
2023-07-12T03:18:33.657Z,98720.16
2023-07-12T03:21:03.436Z,98716.17
2023-07-12T03:23:31.798Z,98717.56
2023-07-12T03:25:59.790Z,98709.59
2023-07-12T03:28:27.720Z,98706.02
2023-07-12T03:31:06.057Z,98700.52
2023-07-12T03:33:35.109Z,98692.36
2023-07-12T03:36:04.010Z,98689.08
2023-07-12T03:38:32.642Z,98687.75
2023-07-12T03:41:06.519Z,98687.37
2023-07-12T03:43:34.911Z,98685.09
2023-07-12T03:46:03.584Z,98684.54
2023-07-12T03:48:31.574Z,98683.67
2023-07-12T03:50:59.991Z,98686.52
2023-07-12T03:53:29.688Z,98680.92
2023-07-12T03:55:59.975Z,98683.27
2023-07-12T03:58:34.853Z,98678.84
2023-07-12T04:01:05.295Z,98673.55
2023-07-12T04:03:33.931Z,98667.70
2023-07-12T04:06:04.191Z,98671.48
2023-07-12T04:08:33.025Z,98672.70
2023-07-12T04:11:01.230Z,98672.14
2023-07-12T04:13:29.317Z,98673.39
2023-07-12T04:16:00.338Z,98671.42
2023-07-12T04:18:29.114Z,98669.33
2023-07-12T04:21:02.848Z,98664.38
2023-07-12T04:23:30.514Z,98660.54
2023-07-12T04:26:02.722Z,98663.40
2023-07-12T04:28:32.477Z,98660.58
2023-07-12T04:31:12.458Z,98654.35
2023-07-12T04:33:40.607Z,98650.77
2023-07-12T04:36:10.769Z,98648.33
2023-07-12T04:38:38.472Z,98639.46
2023-07-12T04:41:06.800Z,98636.60
2023-07-12T04:43:34.788Z,98645.04
2023-07-12T04:46:02.722Z,98643.95
2023-07-12T04:48:31.599Z,98640.45
2023-07-12T04:51:01.191Z,98643.59
2023-07-12T04:53:29.500Z,98642.98
2023-07-12T04:55:57.476Z,98643.48
2023-07-12T04:58:25.180Z,98643.58
2023-07-12T05:00:54.113Z,98640.51
2023-07-12T05:03:22.074Z,98634.39
2023-07-12T05:05:50.205Z,98624.98
2023-07-12T05:08:18.233Z,98623.85
2023-07-12T05:10:45.956Z,98621.28
2023-07-12T05:13:13.770Z,98619.50
2023-07-12T05:15:41.456Z,98625.89
2023-07-12T05:18:09.428Z,98625.85
2023-07-12T05:20:37.976Z,98624.59
2023-07-12T05:23:05.873Z,98622.31
2023-07-12T05:25:33.551Z,98627.11
2023-07-12T05:28:04.149Z,98630.95
2023-07-12T05:30:31.962Z,98635.13
2023-07-12T05:32:59.974Z,98638.20
2023-07-12T05:35:27.717Z,98636.20
2023-07-12T05:37:55.708Z,98635.77
2023-07-12T05:40:23.454Z,98639.98
2023-07-12T05:42:51.564Z,98641.79
2023-07-12T05:45:19.260Z,98649.69
2023-07-12T05:47:50.703Z,98654.23
2023-07-12T05:50:20.314Z,98650.80
2023-07-12T05:52:49.495Z,98648.85
2023-07-12T05:55:19.058Z,98648.75
2023-07-12T05:57:47.788Z,98645.03
2023-07-12T06:00:16.721Z,98641.05
2023-07-12T06:02:44.659Z,98638.12
2023-07-12T06:05:12.956Z,98637.44
2023-07-12T06:07:40.639Z,98633.52
2023-07-12T06:10:09.455Z,98626.39
2023-07-12T06:12:37.476Z,98625.02
2023-07-12T06:15:07.073Z,98623.96
2023-07-12T06:17:35.077Z,98621.81
2023-07-12T06:20:04.127Z,98619.73
2023-07-12T06:22:32.324Z,98619.73
2023-07-12T06:25:00.140Z,98622.16
2023-07-12T06:27:28.070Z,98619.26
2023-07-12T06:29:55.823Z,98615.38
2023-07-12T06:32:23.572Z,98611.73
2023-07-12T06:34:51.462Z,98608.96
2023-07-12T06:37:19.250Z,98611.80
2023-07-12T06:39:47.501Z,98610.83
2023-07-12T06:42:15.150Z,98604.84
2023-07-12T06:44:42.798Z,98601.89
2023-07-12T06:47:10.616Z,98602.81
2023-07-12T06:49:38.238Z,98595.72
2023-07-12T06:52:06.086Z,98589.72
2023-07-12T06:54:34.116Z,98589.23
2023-07-12T06:57:01.975Z,98580.58
2023-07-12T06:59:29.633Z,98577.98
2023-07-12T07:01:57.404Z,98575.67
2023-07-12T07:04:25.596Z,98573.92
2023-07-12T07:06:53.366Z,98569.38
2023-07-12T07:09:21.233Z,98566.73
2023-07-12T07:11:48.938Z,98559.45
2023-07-12T07:14:16.600Z,98557.27
2023-07-12T07:16:44.471Z,98548.80
2023-07-12T07:19:12.212Z,98545.59
2023-07-12T07:21:42.565Z,98541.42
2023-07-12T07:24:10.419Z,98533.37
2023-07-12T07:26:38.129Z,98524.36
2023-07-12T07:29:05.990Z,98519.55
2023-07-12T07:31:33.663Z,98514.81
2023-07-12T07:34:01.588Z,98503.71
2023-07-12T07:36:29.255Z,98495.54
2023-07-12T07:38:56.910Z,98496.05
2023-07-12T07:41:24.635Z,98496.79
2023-07-12T07:43:52.460Z,98499.98
2023-07-12T07:46:20.144Z,98505.06
2023-07-12T07:48:48.464Z,98513.98
2023-07-12T07:51:16.421Z,98511.25
2023-07-12T07:53:44.455Z,98509.15
2023-07-12T07:56:12.309Z,98509.66
2023-07-12T07:58:40.425Z,98510.52
2023-07-12T08:01:08.332Z,98509.71
2023-07-12T08:03:36.447Z,98511.45
2023-07-12T08:06:06.541Z,98507.30
2023-07-12T08:08:36.464Z,98497.80
2023-07-12T08:11:09.371Z,98490.87
2023-07-12T08:13:37.583Z,98497.84
2023-07-12T08:16:05.872Z,98496.49
2023-07-12T08:18:34.645Z,98496.22
2023-07-12T08:21:02.486Z,98501.44
2023-07-12T08:23:30.897Z,98504.45
2023-07-12T08:25:58.932Z,98501.73
2023-07-12T08:28:26.610Z,98494.88
2023-07-12T08:30:54.298Z,98489.80
2023-07-12T08:33:22.000Z,98488.48
2023-07-12T08:35:50.509Z,98473.66
2023-07-12T08:38:20.366Z,98466.25
2023-07-12T08:40:52.389Z,98461.52
2023-07-12T08:43:32.814Z,98455.38
2023-07-12T08:46:07.669Z,98451.85
2023-07-12T08:48:35.703Z,98447.63
2023-07-12T08:51:12.042Z,98443.98
2023-07-12T08:53:41.657Z,98435.55
2023-07-12T08:56:20.159Z,98435.02
2023-07-12T08:58:51.661Z,98436.52
2023-07-12T09:01:33.534Z,98440.44
2023-07-12T09:04:01.284Z,98441.66
2023-07-12T09:06:29.141Z,98441.20
2023-07-12T09:08:56.904Z,98433.48
2023-07-12T09:11:29.860Z,98432.52
2023-07-12T09:13:58.265Z,98438.98
2023-07-12T09:16:31.114Z,98438.24
2023-07-12T09:19:14.235Z,98445.20
2023-07-12T09:21:48.387Z,98444.49
2023-07-12T09:24:22.737Z,98439.71
2023-07-12T09:26:51.314Z,98432.49
2023-07-12T09:29:23.712Z,98426.95
2023-07-12T09:31:52.954Z,98424.01
2023-07-12T09:34:25.950Z,98419.56
2023-07-12T09:37:00.239Z,98418.83
2023-07-12T09:39:28.102Z,98406.52
2023-07-12T09:42:02.192Z,98396.17
2023-07-12T09:44:31.503Z,98395.61
2023-07-12T09:47:27.166Z,98395.49
2023-07-12T09:50:07.650Z,98384.74
2023-07-12T09:52:47.992Z,98377.73
2023-07-12T09:55:21.304Z,98373.80
2023-07-12T09:58:06.367Z,98369.57
2023-07-12T10:00:57.754Z,98370.20
2023-07-12T10:03:29.873Z,98362.20
2023-07-12T10:06:26.949Z,98365.98
2023-07-12T10:09:47.926Z,98368.02
2023-07-12T10:12:25.046Z,98370.47
2023-07-12T10:14:54.734Z,98368.22
2023-07-12T10:17:29.580Z,98366.73
2023-07-12T10:19:57.576Z,98368.78
2023-07-12T10:22:36.311Z,98375.02
2023-07-12T10:25:11.555Z,98382.89
2023-07-12T10:27:47.061Z,98387.41
2023-07-12T10:30:18.772Z,98393.86
2023-07-12T10:32:51.561Z,98394.06
2023-07-12T10:35:42.105Z,98399.52
2023-07-12T10:38:15.457Z,98400.14
2023-07-12T10:40:55.563Z,98404.85
2023-07-12T10:43:32.313Z,98407.98
2023-07-12T10:46:06.073Z,98407.23
2023-07-12T10:48:34.032Z,98411.09
2023-07-12T10:51:46.053Z,98404.20
2023-07-12T10:54:36.775Z,98405.21
2023-07-12T10:57:19.827Z,98405.65
2023-07-12T10:59:47.792Z,98405.48
2023-07-12T11:02:40.210Z,98404.02
2023-07-12T11:05:38.170Z,98399.91
2023-07-12T11:08:06.246Z,98398.44
2023-07-12T11:10:37.166Z,98402.23
2023-07-12T11:13:15.136Z,98400.02
2023-07-12T11:15:52.331Z,98400.95
2023-07-12T11:18:26.198Z,98399.69
2023-07-12T11:21:02.195Z,98407.30
2023-07-12T11:23:39.611Z,98409.00
2023-07-12T11:26:22.547Z,98411.90
2023-07-12T11:28:51.831Z,98409.20
2023-07-12T11:31:28.382Z,98412.63
2023-07-12T11:34:11.612Z,98418.86
2023-07-12T11:36:40.599Z,98418.13
2023-07-12T11:39:19.842Z,98418.11
2023-07-12T11:41:58.950Z,98412.49
2023-07-12T11:44:27.094Z,98406.59
2023-07-12T11:46:55.501Z,98400.63
2023-07-12T11:49:27.672Z,98399.89
2023-07-12T11:51:58.108Z,98399.75
2023-07-12T11:54:29.680Z,98399.95
2023-07-12T11:57:03.682Z,98394.95
2023-07-12T11:59:37.589Z,98396.71
2023-07-12T12:02:11.977Z,98400.85
2023-07-12T12:04:40.241Z,98393.13
2023-07-12T12:07:33.997Z,98383.89
2023-07-12T12:10:04.508Z,98377.49
2023-07-12T12:12:34.471Z,98384.03
2023-07-12T12:15:02.932Z,98390.35
2023-07-12T12:17:33.462Z,98391.62
2023-07-12T12:20:12.776Z,98387.91
2023-07-12T12:22:43.165Z,98385.63
2023-07-12T12:25:19.158Z,98390.16
2023-07-12T12:27:48.095Z,98396.58
2023-07-12T12:30:15.766Z,98394.39
2023-07-12T12:33:21.649Z,98389.90
2023-07-12T12:35:55.714Z,98394.02
2023-07-12T12:38:27.536Z,98391.38
2023-07-12T12:41:14.189Z,98387.17
2023-07-12T12:43:56.818Z,98387.08
2023-07-12T12:46:25.943Z,98383.35
2023-07-12T12:53:57.043Z,98383.50
2023-07-12T13:02:41.223Z,98388.94
2023-07-12T13:04:54.944Z,98389.44
2023-07-12T13:07:40.317Z,98390.49
2023-07-12T13:15:38.569Z,98387.20
2023-07-12T13:17:01.297Z,98392.30
2023-07-12T13:19:00.349Z,98391.27
2023-07-12T13:21:19.071Z,98387.55
2023-07-12T13:23:47.584Z,98384.01
2023-07-12T13:26:17.842Z,98387.72
2023-07-12T13:28:46.253Z,98391.13
2023-07-12T13:31:17.443Z,98393.51
2023-07-12T13:33:55.582Z,98390.50
2023-07-12T13:36:37.009Z,98391.78
2023-07-12T13:46:56.170Z,98408.71
2023-07-12T13:49:23.936Z,98414.14
2023-07-12T13:51:51.919Z,98412.45
2023-07-12T13:54:21.141Z,98414.49
2023-07-12T13:56:48.989Z,98415.66
2023-07-12T13:59:19.066Z,98420.87
2023-07-12T14:02:51.971Z,98421.38
2023-07-12T14:04:39.006Z,98426.60
2023-07-12T14:08:21.745Z,98432.73
2023-07-12T14:12:43.684Z,98441.92
2023-07-12T14:15:31.701Z,98440.75
2023-07-12T14:17:59.405Z,98439.56
2023-07-12T14:20:28.217Z,98428.77
2023-07-12T14:22:56.250Z,98428.79
2023-07-12T14:25:24.609Z,98426.11
2023-07-12T14:27:52.321Z,98426.76
2023-07-12T14:32:52.526Z,98419.56
2023-07-12T14:35:22.360Z,98412.31
2023-07-12T14:37:50.828Z,98413.80
2023-07-12T14:40:19.853Z,98412.59
2023-07-12T14:42:48.420Z,98415.70
2023-07-12T14:45:20.634Z,98412.64
2023-07-12T14:47:49.414Z,98410.02
2023-07-12T14:50:21.327Z,98405.69
2023-07-12T14:52:49.359Z,98406.92
2023-07-12T14:55:18.831Z,98405.70
2023-07-12T14:58:13.208Z,98405.38
2023-07-12T15:00:34.809Z,98403.91
2023-07-12T15:03:02.805Z,98404.38
2023-07-12T15:05:30.693Z,98404.85
2023-07-12T15:07:58.342Z,98399.16
2023-07-12T15:10:26.074Z,98396.02
2023-07-12T15:13:03.358Z,98404.33
2023-07-12T15:15:32.930Z,98402.19
2023-07-12T15:18:12.831Z,98404.15
2023-07-12T15:20:42.220Z,98410.45
2023-07-12T15:23:17.783Z,98410.90
2023-07-12T15:25:48.374Z,98403.46
2023-07-12T15:28:17.198Z,98398.11
2023-07-12T15:30:46.169Z,98398.04
2023-07-12T15:33:28.463Z,98392.20
2023-07-12T15:36:04.072Z,98390.86
2023-07-12T15:38:32.032Z,98383.92
2023-07-12T15:41:04.367Z,98381.44
2023-07-12T15:43:37.330Z,98378.30
2023-07-12T15:46:07.575Z,98372.77
2023-07-12T15:48:36.038Z,98361.59
2023-07-12T15:51:21.895Z,98355.99
2023-07-12T15:53:54.137Z,98349.14
2023-07-12T15:56:34.033Z,98341.80
2023-07-12T15:59:05.628Z,98333.96
2023-07-12T16:01:33.920Z,98337.95
2023-07-12T16:04:04.252Z,98345.19
2023-07-12T16:06:33.034Z,98346.21
2023-07-12T16:09:00.958Z,98350.97
2023-07-12T16:11:35.664Z,98345.73
2023-07-12T16:14:14.720Z,98342.07
2023-07-12T16:16:42.679Z,98341.90
2023-07-12T16:19:12.063Z,98343.67
2023-07-12T16:21:40.575Z,98354.22
2023-07-12T16:24:12.448Z,98362.80
2023-07-12T16:26:41.267Z,98362.48
2023-07-12T16:29:09.660Z,98358.02
2023-07-12T16:31:47.137Z,98353.98
2023-07-12T16:34:17.586Z,98349.04
2023-07-12T16:36:47.037Z,98344.48
2023-07-12T16:39:15.743Z,98349.25
2023-07-12T16:41:44.373Z,98359.70
2023-07-12T16:44:20.881Z,98372.63
2023-07-12T16:46:49.405Z,98386.08
2023-07-12T16:49:17.989Z,98392.52
2023-07-12T16:52:01.865Z,98394.33
2023-07-12T16:54:31.144Z,98399.56
2023-07-12T16:56:59.477Z,98400.40
2023-07-12T16:59:29.550Z,98398.67
2023-07-12T17:02:00.475Z,98401.00
2023-07-12T17:04:29.975Z,98416.95
2023-07-12T17:06:59.169Z,98463.66
2023-07-12T17:09:29.418Z,98484.73
2023-07-12T17:11:57.537Z,98496.65
2023-07-12T17:14:25.493Z,98507.17
2023-07-12T17:16:53.617Z,98506.05
2023-07-12T17:19:22.729Z,98498.37
2023-07-12T17:21:51.628Z,98503.06
2023-07-12T17:24:19.415Z,98503.52
2023-07-12T17:26:47.263Z,98510.56
2023-07-12T17:29:15.642Z,98513.09
2023-07-12T17:31:46.451Z,98513.35
2023-07-12T17:34:21.601Z,98507.61
2023-07-12T17:36:49.879Z,98500.93
2023-07-12T17:39:17.826Z,98486.17
2023-07-12T17:41:45.863Z,98487.76
2023-07-12T17:44:17.717Z,98496.59
2023-07-12T17:46:48.306Z,98502.80
2023-07-12T17:49:16.873Z,98500.42
2023-07-12T17:51:44.651Z,98494.41
2023-07-12T17:54:13.749Z,98489.27
2023-07-12T17:56:42.853Z,98488.02
2023-07-12T17:59:14.205Z,98488.34
2023-07-12T18:01:44.098Z,98490.70
2023-07-12T18:04:13.305Z,98490.85
2023-07-12T18:06:41.069Z,98486.91
2023-07-12T18:09:08.820Z,98493.77
2023-07-12T18:11:42.282Z,98486.73
2023-07-12T18:14:22.598Z,98479.17
2023-07-12T18:16:52.420Z,98480.05
2023-07-12T18:19:20.510Z,98482.42
2023-07-12T18:21:49.461Z,98491.17
2023-07-12T18:24:23.994Z,98508.59
2023-07-12T18:26:52.392Z,98550.69
2023-07-12T18:29:20.316Z,98557.44
2023-07-12T18:31:48.598Z,98571.61
2023-07-12T18:34:17.481Z,98558.23
2023-07-12T18:36:45.612Z,98542.35
2023-07-12T18:39:16.593Z,98533.17
2023-07-12T18:41:44.313Z,98528.63
2023-07-12T18:44:14.613Z,98529.77
2023-07-12T18:46:43.059Z,98531.29
2023-07-12T18:49:11.553Z,98528.71
2023-07-12T18:51:39.287Z,98536.52
2023-07-12T18:54:17.501Z,98538.90
2023-07-12T18:56:45.349Z,98527.84
2023-07-12T18:59:13.084Z,98523.33
2023-07-12T19:01:41.053Z,98522.09
2023-07-12T19:04:09.091Z,98517.92
2023-07-12T19:06:37.393Z,98522.63
2023-07-12T19:09:06.221Z,98516.75
2023-07-12T19:11:38.969Z,98513.25
2023-07-12T19:14:07.954Z,98512.85
2023-07-12T19:16:36.489Z,98515.29
2023-07-12T19:19:04.589Z,98515.63
2023-07-12T19:21:33.742Z,98514.88
2023-07-12T19:24:02.337Z,98518.39
2023-07-12T19:26:32.255Z,98520.82
2023-07-12T19:29:00.001Z,98522.88
2023-07-12T19:31:40.332Z,98531.36
2023-07-12T19:34:19.552Z,98538.93
2023-07-12T19:36:48.195Z,98541.02
2023-07-12T19:39:15.823Z,98534.52
2023-07-12T19:41:43.854Z,98530.14
2023-07-12T19:44:16.345Z,98524.98
2023-07-12T19:46:45.500Z,98528.44
2023-07-12T19:49:14.556Z,98529.95
2023-07-12T19:51:44.938Z,98528.46
2023-07-12T19:54:15.201Z,98533.11
2023-07-12T19:56:44.007Z,98536.48
2023-07-12T19:59:12.134Z,98538.59
2023-07-12T20:01:40.583Z,98539.31
2023-07-12T20:04:08.853Z,98544.13
2023-07-12T20:06:36.609Z,98548.35
2023-07-12T20:09:05.200Z,98546.17
2023-07-12T20:11:34.595Z,98547.16
2023-07-12T20:14:03.040Z,98550.59
2023-07-12T20:16:32.598Z,98549.51
2023-07-12T20:19:00.982Z,98549.74
2023-07-12T20:21:29.587Z,98544.72
2023-07-12T20:23:57.326Z,98550.27
2023-07-12T20:26:24.952Z,98556.83
2023-07-12T20:28:52.671Z,98557.39
2023-07-12T20:31:21.569Z,98562.86
2023-07-12T20:33:49.436Z,98567.51
2023-07-12T20:36:17.408Z,98573.56
2023-07-12T20:38:45.300Z,98576.21
2023-07-12T20:41:13.402Z,98583.08
2023-07-12T20:43:41.664Z,98580.60
2023-07-12T20:46:10.981Z,98580.52
2023-07-12T20:48:39.307Z,98574.14
2023-07-12T20:51:12.950Z,98573.30
2023-07-12T20:53:44.954Z,98576.10
2023-07-12T20:56:15.100Z,98575.49
2023-07-12T20:58:43.006Z,98576.52
2023-07-12T21:01:13.261Z,98570.84
2023-07-12T21:03:41.214Z,98565.11
2023-07-12T21:06:09.341Z,98563.60
2023-07-12T21:08:38.045Z,98567.70
2023-07-12T21:11:06.524Z,98569.20
2023-07-12T21:13:34.837Z,98571.70
2023-07-12T21:16:04.977Z,98572.66
2023-07-12T21:18:33.114Z,98569.86
2023-07-12T21:21:01.033Z,98571.86
2023-07-12T21:23:29.827Z,98569.77
2023-07-12T21:25:59.579Z,98572.63
2023-07-12T21:28:28.120Z,98572.58
2023-07-12T21:30:56.496Z,98573.46
2023-07-12T21:33:24.497Z,98577.30
2023-07-12T21:35:57.265Z,98574.33
2023-07-12T21:38:33.005Z,98574.48
2023-07-12T21:41:05.072Z,98573.77
2023-07-12T21:43:32.777Z,98581.35
2023-07-12T21:46:01.239Z,98579.95
2023-07-12T21:48:29.123Z,98583.80
2023-07-12T21:50:58.241Z,98584.66
2023-07-12T21:53:26.241Z,98586.88
2023-07-12T21:55:53.972Z,98587.30
2023-07-12T21:58:22.283Z,98591.80
2023-07-12T22:00:50.006Z,98587.59
2023-07-12T22:03:17.867Z,98593.33
2023-07-12T22:05:46.671Z,98591.89
2023-07-12T22:08:15.216Z,98600.88
2023-07-12T22:10:43.702Z,98607.08
2023-07-12T22:13:11.488Z,98608.41
2023-07-12T22:15:40.064Z,98611.55
2023-07-12T22:18:08.200Z,98612.20
2023-07-12T22:20:36.984Z,98620.08
2023-07-12T22:23:04.995Z,98620.19
2023-07-12T22:25:33.778Z,98619.03
2023-07-12T22:28:01.552Z,98621.40
2023-07-12T22:30:33.844Z,98619.33
2023-07-12T22:33:02.334Z,98617.44
2023-07-12T22:35:31.884Z,98618.73
2023-07-12T22:38:00.920Z,98620.55
2023-07-12T22:40:30.266Z,98622.49
2023-07-12T22:42:58.878Z,98626.06
2023-07-12T22:57:58.367Z,98638.60
2023-07-12T23:00:26.674Z,98636.30
2023-07-12T23:02:54.631Z,98631.06
2023-07-12T23:05:22.563Z,98634.04
2023-07-12T23:07:50.670Z,98635.92
2023-07-12T23:10:21.168Z,98636.63
2023-07-12T23:12:49.907Z,98639.88
2023-07-12T23:15:21.703Z,98643.55
2023-07-12T23:17:52.532Z,98637.86
2023-07-12T23:20:21.303Z,98640.19
2023-07-12T23:22:49.444Z,98641.85
2023-07-12T23:25:17.823Z,98641.27
2023-07-12T23:27:48.359Z,98637.48
2023-07-12T23:30:16.211Z,98627.69
2023-07-12T23:32:43.890Z,98623.26
2023-07-12T23:35:11.693Z,98622.34
2023-07-12T23:37:39.716Z,98621.20
2023-07-12T23:40:08.433Z,98621.36
2023-07-12T23:42:37.807Z,98623.67
2023-07-12T23:45:09.084Z,98627.56
2023-07-12T23:47:36.843Z,98630.63
2023-07-12T23:50:05.631Z,98632.61
2023-07-12T23:52:33.348Z,98628.78
2023-07-12T23:55:01.780Z,98625.87
2023-07-12T23:57:30.013Z,98623.66
2023-07-12T23:59:58.419Z,98618.51
